createdAt,value
2022-10-18T04:00:24.986Z,1.00
2022-10-18T04:02:55.946Z,1.00
2022-10-18T04:05:26.864Z,4.00
2022-10-18T04:07:55.318Z,7.40
2022-10-18T04:10:23.363Z,7.80
2022-10-18T04:12:51.283Z,10.20
2022-10-18T04:15:19.385Z,10.70
2022-10-18T04:17:47.693Z,12.30
2022-10-18T04:20:17.591Z,11.90
2022-10-18T04:22:45.585Z,11.60
2022-10-18T04:25:13.585Z,13.00
2022-10-18T04:27:41.595Z,14.70
2022-10-18T04:30:10.838Z,16.00
2022-10-18T04:32:39.016Z,17.20
2022-10-18T04:35:08.422Z,18.10
2022-10-18T04:37:37.758Z,18.00
2022-10-18T04:40:07.348Z,17.50
2022-10-18T04:42:35.313Z,17.10
2022-10-18T04:45:03.297Z,18.00
2022-10-18T04:47:31.730Z,18.50
2022-10-18T04:50:00.115Z,18.90
2022-10-18T04:52:28.119Z,18.60
2022-10-18T04:54:57.518Z,18.00
2022-10-18T04:57:25.503Z,19.10
2022-10-18T04:59:53.516Z,20.50
2022-10-18T05:02:21.985Z,22.10
2022-10-18T05:04:49.892Z,22.90
2022-10-18T05:07:18.149Z,23.20
2022-10-18T05:09:46.118Z,23.70
2022-10-18T05:12:15.439Z,24.60
2022-10-18T05:14:43.410Z,28.00
2022-10-18T05:17:12.037Z,27.20
2022-10-18T05:19:40.053Z,26.10
2022-10-18T05:22:08.029Z,24.00
2022-10-18T05:24:36.030Z,23.20
2022-10-18T05:27:04.088Z,23.70
2022-10-18T05:29:33.361Z,23.50
2022-10-18T05:32:01.343Z,23.80
2022-10-18T05:34:31.875Z,22.50
2022-10-18T05:37:00.475Z,21.00
2022-10-18T05:39:28.456Z,27.70
2022-10-18T05:41:56.491Z,18.90
2022-10-18T05:44:24.425Z,17.70
2022-10-18T05:46:53.703Z,17.30
2022-10-18T05:49:21.874Z,18.30
2022-10-18T05:51:50.073Z,18.80
2022-10-18T05:54:18.336Z,18.10
2022-10-18T05:56:46.291Z,17.20
2022-10-18T05:59:21.065Z,16.70
2022-10-18T06:01:49.031Z,15.40
2022-10-18T06:04:17.887Z,16.30
2022-10-18T06:06:46.065Z,18.40
2022-10-18T06:09:14.137Z,20.60
2022-10-18T06:11:42.126Z,21.30
2022-10-18T06:14:11.248Z,23.70
2022-10-18T06:16:40.564Z,24.50
2022-10-18T06:19:08.585Z,25.80
2022-10-18T06:21:36.624Z,26.80
2022-10-18T06:24:04.829Z,26.90
2022-10-18T06:26:32.832Z,26.70
2022-10-18T06:29:00.950Z,28.20
2022-10-18T06:31:28.936Z,29.10
2022-10-18T06:33:59.267Z,31.20
2022-10-18T06:36:27.534Z,33.60
2022-10-18T06:38:56.715Z,35.70
2022-10-18T06:41:25.110Z,36.60
2022-10-18T06:43:57.361Z,40.10
2022-10-18T06:46:26.892Z,43.00
2022-10-18T06:48:54.909Z,48.20
2022-10-18T06:51:24.245Z,54.60
2022-10-18T06:54:06.265Z,53.70
2022-10-18T06:56:40.380Z,57.00
2022-10-18T06:59:08.379Z,60.70
2022-10-18T07:01:36.410Z,61.80
2022-10-18T07:04:05.241Z,63.90
2022-10-18T07:06:34.544Z,60.30
2022-10-18T07:09:03.257Z,54.90
2022-10-18T07:11:31.326Z,50.50
2022-10-18T07:14:04.192Z,48.90
2022-10-18T07:16:33.552Z,46.70
2022-10-18T07:19:01.543Z,44.10
2022-10-18T07:21:29.764Z,43.80
2022-10-18T07:23:59.141Z,54.90
2022-10-18T07:26:29.117Z,68.90
2022-10-18T07:29:00.401Z,81.10
2022-10-18T07:31:29.585Z,90.50
2022-10-18T07:33:58.193Z,93.60
2022-10-18T07:36:26.496Z,93.30
2022-10-18T07:38:56.923Z,91.10
2022-10-18T07:41:26.799Z,91.10
2022-10-18T07:43:55.079Z,91.70
2022-10-18T07:46:24.050Z,93.20
2022-10-18T07:48:52.596Z,94.60
2022-10-18T07:51:21.728Z,94.50
2022-10-18T07:53:49.749Z,93.40
2022-10-18T07:56:20.668Z,92.60
2022-10-18T07:58:53.011Z,90.70
2022-10-18T08:01:22.307Z,83.50
2022-10-18T08:03:50.994Z,84.00
2022-10-18T08:06:21.624Z,81.60
2022-10-18T08:08:50.081Z,78.20
2022-10-18T08:11:20.632Z,71.50
2022-10-18T08:13:50.579Z,58.10
2022-10-18T08:16:22.183Z,30.90
2022-10-18T08:18:50.543Z,19.80
2022-10-18T08:21:21.648Z,15.80
2022-10-18T08:23:50.047Z,10.50
2022-10-18T08:26:21.029Z,4.40
2022-10-18T08:28:58.296Z,1.00
2022-10-18T08:31:37.847Z,1.70
2022-10-18T08:34:05.811Z,1.00
2022-10-18T08:36:33.871Z,1.00
2022-10-18T08:39:03.270Z,1.00
2022-10-18T08:42:17.018Z,1.00
2022-10-18T08:44:49.520Z,5.80
2022-10-18T08:47:22.221Z,10.90
2022-10-18T08:49:55.415Z,10.70
2022-10-18T08:52:34.288Z,16.30
2022-10-18T08:55:08.076Z,16.40
2022-10-18T08:57:36.296Z,19.20
2022-10-18T09:00:16.432Z,23.90
2022-10-18T09:03:04.724Z,26.60
2022-10-18T09:05:46.618Z,30.20
2022-10-18T09:08:38.959Z,43.30
2022-10-18T09:11:25.576Z,41.30
2022-10-18T09:14:24.976Z,35.80
2022-10-18T09:17:10.379Z,35.50
2022-10-18T09:20:03.781Z,35.10
2022-10-18T09:22:52.923Z,36.00
2022-10-18T09:25:24.913Z,43.10
2022-10-18T09:27:57.149Z,47.10
2022-10-18T09:30:42.115Z,54.40
2022-10-18T09:33:30.925Z,78.80
2022-10-18T09:36:02.761Z,92.60
2022-10-18T09:38:45.762Z,96.50
2022-10-18T09:41:21.598Z,99.20
2022-10-18T09:43:58.005Z,99.90
2022-10-18T09:46:32.544Z,99.90
2022-10-18T09:49:06.935Z,99.90
2022-10-18T09:51:39.784Z,99.90
2022-10-18T09:54:20.598Z,99.90
2022-10-18T09:59:37.129Z,99.90
2022-10-18T10:02:06.595Z,99.90
2022-10-18T10:04:35.891Z,99.90
2022-10-18T10:07:09.023Z,99.90
2022-10-18T10:09:44.960Z,99.90
2022-10-18T10:12:30.081Z,99.90
2022-10-18T10:15:19.314Z,99.90
2022-10-18T10:17:57.721Z,99.90
2022-10-18T10:20:36.694Z,99.90
2022-10-18T10:23:14.871Z,99.90
2022-10-18T10:25:44.343Z,99.90
2022-10-18T10:28:19.310Z,99.90
2022-10-18T10:30:47.289Z,99.90
2022-10-18T10:33:36.993Z,99.90
2022-10-18T10:36:18.674Z,99.90
2022-10-18T10:38:47.429Z,99.90
2022-10-18T10:41:22.573Z,99.90
2022-10-18T10:43:52.561Z,99.90
2022-10-18T10:46:23.168Z,99.90
2022-10-18T10:49:04.472Z,99.90
2022-10-18T10:51:45.167Z,99.90
2022-10-18T10:54:17.861Z,99.90
2022-10-18T10:56:57.513Z,99.90
2022-10-18T10:59:29.450Z,99.90
2022-10-18T11:02:22.015Z,99.90
2022-10-18T11:04:52.701Z,99.90
2022-10-18T11:07:30.027Z,99.90
2022-10-18T11:10:04.256Z,99.90
2022-10-18T11:12:37.392Z,99.90
2022-10-18T11:15:23.231Z,99.90
2022-10-18T11:18:09.812Z,99.90
2022-10-18T11:20:43.841Z,99.90
2022-10-18T11:23:15.709Z,99.90
2022-10-18T11:26:16.615Z,99.90
2022-10-18T11:29:17.984Z,99.90
2022-10-18T11:31:57.933Z,99.90
2022-10-18T11:34:49.819Z,99.90
2022-10-18T11:37:41.797Z,98.80
2022-10-18T11:40:31.506Z,94.80
2022-10-18T11:43:11.472Z,95.50
2022-10-18T11:45:49.472Z,94.60
2022-10-18T11:48:50.624Z,98.60
2022-10-18T11:51:35.415Z,97.70
2022-10-18T11:54:41.332Z,84.80
2022-10-18T11:57:31.190Z,44.20
2022-10-18T12:00:16.564Z,38.60
2022-10-18T12:03:08.004Z,43.90
2022-10-18T12:05:39.882Z,32.90
2022-10-18T12:08:14.236Z,34.30
2022-10-18T12:13:41.585Z,9.10
2022-10-18T12:16:11.117Z,8.40
2022-10-18T12:21:30.003Z,4.00
2022-10-18T12:24:03.104Z,1.00
2022-10-18T12:26:33.860Z,1.00
2022-10-18T12:29:18.046Z,1.00
2022-10-18T12:31:51.207Z,1.00
2022-10-18T12:34:36.780Z,1.00
2022-10-18T12:37:52.525Z,1.00
2022-10-18T12:40:25.283Z,1.00
2022-10-18T12:42:54.746Z,1.00
2022-10-18T12:45:33.036Z,1.00
2022-10-18T12:48:03.257Z,1.00
2022-10-18T12:50:36.728Z,1.00
2022-10-18T12:53:18.930Z,1.00
2022-10-18T12:55:51.276Z,1.00
2022-10-18T12:58:32.247Z,1.00
2022-10-18T13:01:08.173Z,1.00
2022-10-18T13:03:55.821Z,1.00
2022-10-18T13:06:25.304Z,1.00
2022-10-18T13:09:20.844Z,1.00
2022-10-18T13:11:49.493Z,1.00
2022-10-18T13:15:12.658Z,1.00
2022-10-18T13:17:56.658Z,1.00
2022-10-18T13:20:34.962Z,1.00
2022-10-18T13:23:25.018Z,1.00
2022-10-18T13:26:05.244Z,1.00
2022-10-18T13:28:47.043Z,1.00
2022-10-18T13:31:24.409Z,1.00
2022-10-18T13:33:54.013Z,1.00
2022-10-18T13:39:06.120Z,1.00
2022-10-18T13:44:44.444Z,1.00
2022-10-18T13:47:16.329Z,1.00
2022-10-18T13:50:33.876Z,1.00
2022-10-18T13:53:44.374Z,1.00
2022-10-18T13:56:52.101Z,1.00
2022-10-18T13:59:43.340Z,1.00
2022-10-18T14:02:55.039Z,1.00
2022-10-18T14:05:51.936Z,1.00
2022-10-18T14:08:29.394Z,1.00
2022-10-18T14:11:04.916Z,1.00
2022-10-18T14:13:44.357Z,1.00
2022-10-18T14:16:31.457Z,1.00
2022-10-18T14:19:15.358Z,1.00
2022-10-18T14:21:55.072Z,1.00
2022-10-18T14:24:27.129Z,1.00
2022-10-18T14:27:18.942Z,1.00
2022-10-18T14:29:47.469Z,1.00
2022-10-18T14:32:27.949Z,1.00
2022-10-18T14:35:20.598Z,1.00
2022-10-18T14:37:52.536Z,1.00
2022-10-18T14:40:35.717Z,1.00
2022-10-18T14:43:07.371Z,1.00
2022-10-18T14:45:35.361Z,1.00
2022-10-18T14:48:16.353Z,1.00
2022-10-18T14:50:48.022Z,1.00
2022-10-18T14:53:22.051Z,1.00
2022-10-18T14:56:00.681Z,1.00
2022-10-18T14:58:29.447Z,1.00
2022-10-18T15:00:58.807Z,1.00
2022-10-18T15:03:28.515Z,1.00
2022-10-18T15:05:59.807Z,1.00
2022-10-18T15:08:37.684Z,1.00
2022-10-18T15:11:14.129Z,1.00
2022-10-18T15:16:27.711Z,1.00
2022-10-18T15:19:46.287Z,1.00
2022-10-18T15:22:31.900Z,1.00
2022-10-18T15:25:16.609Z,1.00
2022-10-18T15:27:48.661Z,1.00
2022-10-18T15:30:27.588Z,1.00
2022-10-18T15:32:58.928Z,1.00
2022-10-18T15:35:31.506Z,1.00
2022-10-18T15:38:03.629Z,1.00
2022-10-18T15:40:45.000Z,1.00
2022-10-18T15:43:40.403Z,1.00
2022-10-18T15:46:30.923Z,1.00
2022-10-18T15:49:58.718Z,1.00
2022-10-18T15:52:39.949Z,1.00
2022-10-18T15:55:50.228Z,1.00
2022-10-18T15:58:23.857Z,1.00
2022-10-18T16:00:59.632Z,1.00
2022-10-18T16:03:29.452Z,1.00
2022-10-18T16:06:04.992Z,1.00
2022-10-18T16:08:37.104Z,1.00
2022-10-18T16:11:05.963Z,1.00
2022-10-18T16:13:35.440Z,1.00
2022-10-18T16:16:03.541Z,1.00
2022-10-18T16:18:31.583Z,1.00
2022-10-18T16:21:01.837Z,1.00
2022-10-18T16:23:29.925Z,1.00
2022-10-18T16:25:58.295Z,1.00
2022-10-18T16:28:27.038Z,1.00
2022-10-18T16:31:00.306Z,1.00
2022-10-18T16:33:29.193Z,1.00
2022-10-18T16:35:58.348Z,1.00
2022-10-18T16:38:34.030Z,1.00
2022-10-18T16:41:06.364Z,1.00
2022-10-18T16:43:35.703Z,3.20
2022-10-18T16:46:07.389Z,6.60
2022-10-18T16:48:35.488Z,13.60
2022-10-18T16:51:03.643Z,17.00
2022-10-18T16:53:31.892Z,23.20
2022-10-18T16:58:33.693Z,30.00
2022-10-18T17:01:04.107Z,43.30
2022-10-18T17:03:36.128Z,47.40
2022-10-18T17:06:04.390Z,51.50
2022-10-18T17:08:32.529Z,55.20
2022-10-18T17:11:03.236Z,51.20
2022-10-18T17:13:31.391Z,59.00
2022-10-18T17:16:03.319Z,62.30
2022-10-18T17:18:33.471Z,64.90
2022-10-18T17:21:03.202Z,64.40
2022-10-18T17:23:31.683Z,68.60
2022-10-18T17:26:06.908Z,67.20
2022-10-18T17:28:43.156Z,66.30
2022-10-18T17:31:11.321Z,68.60
2022-10-18T17:33:39.261Z,78.70
2022-10-18T17:36:08.737Z,82.80
2022-10-18T17:38:36.916Z,85.00
2022-10-18T17:41:08.098Z,87.90
2022-10-18T17:43:37.762Z,91.10
2022-10-18T17:46:06.489Z,94.90
2022-10-18T17:48:34.899Z,94.30
2022-10-18T17:51:09.624Z,96.00
2022-10-18T17:53:37.630Z,97.20
2022-10-18T17:56:07.331Z,99.60
2022-10-18T17:58:36.144Z,99.90
2022-10-18T18:01:11.800Z,99.90
2022-10-18T18:03:39.992Z,99.90
2022-10-18T18:06:18.847Z,99.90
2022-10-18T18:08:48.581Z,99.90
2022-10-18T18:11:18.169Z,99.90
2022-10-18T18:13:46.623Z,99.90
2022-10-18T18:16:18.280Z,99.90
2022-10-18T18:18:48.160Z,99.90
2022-10-18T18:21:18.044Z,99.90
2022-10-18T18:23:46.380Z,99.90
2022-10-18T18:26:15.082Z,99.90
2022-10-18T18:28:43.590Z,99.90
2022-10-18T18:31:15.879Z,99.90
2022-10-18T18:33:44.354Z,99.90
2022-10-18T18:36:13.681Z,99.90
2022-10-18T18:38:43.404Z,99.90
2022-10-18T18:41:15.376Z,99.90
2022-10-18T18:43:47.077Z,99.90
2022-10-18T18:46:15.085Z,99.90
2022-10-18T18:48:43.266Z,99.90
2022-10-18T18:51:14.824Z,99.90
2022-10-18T18:53:45.835Z,99.90
2022-10-18T18:56:16.960Z,99.90
2022-10-18T18:58:46.083Z,99.90
2022-10-18T19:01:18.392Z,99.90
2022-10-18T19:03:49.134Z,99.90
2022-10-18T19:06:20.509Z,99.90
2022-10-18T19:08:52.470Z,99.90
2022-10-18T19:11:23.532Z,99.90
2022-10-18T19:13:51.678Z,99.90
2022-10-18T19:16:24.417Z,99.90
2022-10-18T19:18:55.550Z,99.90
2022-10-18T19:21:25.973Z,99.90
2022-10-18T19:23:56.085Z,99.90
2022-10-18T19:26:37.017Z,99.90
2022-10-18T19:29:10.473Z,99.90
2022-10-18T19:31:39.751Z,99.90
2022-10-18T19:34:10.725Z,99.90
2022-10-18T19:36:40.244Z,99.90
2022-10-18T19:39:19.010Z,99.90
2022-10-18T19:41:47.510Z,99.90
2022-10-18T19:44:15.572Z,99.90
2022-10-18T19:46:43.743Z,99.90
2022-10-18T19:49:12.407Z,99.90
2022-10-18T19:51:40.655Z,99.90
2022-10-18T19:54:12.162Z,99.90
2022-10-18T19:56:41.716Z,99.90
2022-10-18T19:59:11.506Z,99.90
2022-10-18T20:01:39.918Z,99.90
2022-10-18T20:04:09.440Z,99.90
2022-10-18T20:06:38.872Z,99.90
2022-10-18T20:09:10.366Z,99.90
2022-10-18T20:11:39.177Z,99.90
2022-10-18T20:14:09.478Z,99.90
2022-10-18T20:16:37.706Z,99.90
2022-10-18T20:19:08.185Z,99.90
2022-10-18T20:21:37.539Z,99.90
2022-10-18T20:24:07.513Z,99.90
2022-10-18T20:26:37.077Z,99.90
2022-10-18T20:29:05.519Z,99.90
2022-10-18T20:31:38.213Z,99.90
2022-10-18T20:34:09.596Z,99.90
2022-10-18T20:36:37.908Z,99.90
2022-10-18T20:39:06.561Z,99.90
2022-10-18T20:41:40.837Z,99.90
2022-10-18T20:44:13.319Z,99.90
2022-10-18T20:46:41.923Z,99.90
2022-10-18T20:49:14.474Z,99.90
2022-10-18T20:51:42.828Z,99.90
2022-10-18T20:54:12.237Z,99.90
2022-10-18T20:56:41.523Z,99.90
2022-10-18T20:59:09.728Z,99.90
